Meath Environmental Platform

Observations for Trim Market St

Time AQI Temp °C Hum % Pres Pa CO μg/m³ H₂S μg/m³ NO μg/m³ NO₂ μg/m³ O₃ μg/m³ SO₂ μg/m³ PM1 μg/m³ PM2.5 μg/m³ PM10 μg/m³
Tuesday 18 August 2026
03:03 2 18.7 77 12,255 0 0 1.8 3.18 53.68 0 0.71 1.29 3.44
03:01 2 18.8 77 13,137 0 0 1.82 3.34 57.93 0 0.71 2.24 4.61
02:59 2 18.8 77 13,772 0 0 1.82 2.83 52.82 0 0.71 1.77 4.02
02:58 2 18.8 77 14,179 0.01 0 1.82 2.93 55.86 0 0.71 1.77 4.02
02:57 2 18.8 77 14,529 0 0 1.82 2.86 51.9 0 0.71 2.25 4.6
02:56 2 18.9 77 14,789 0.01 0 1.78 3.11 54.67 0 0.71 2.25 4.6
02:51 2 19 77 14,421 0 0 1.82 2.52 51.84 0 0.71 1.77 4.02
02:49 2 19 77 13,559 0.02 0 1.83 2.74 52.2 0 0.71 1.76 4.03
02:47 2 19 77 12,396 0.02 0 1.81 2.66 53.03 0 0.71 1.29 4.03
02:43 2 19.1 77 9,257 0.02 0 1.82 2.51 52.19 0 0.71 2.71 5.2
02:38 2 19.1 78 5,325 0.02 0 1.84 2.35 53.48 0 0.71 2.22 5.2
02:37 2 19.1 78 4,285 0.02 0 1.84 2.19 50.44 0 0.71 2.69 5.21
02:36 2 19.1 78 3,234 0.03 0 1.85 2.45 55.19 0 0.71 2.22 4.63
02:35 2 19.2 78 2,002 0.01 0 1.87 2.13 52.66 0 0.71 1.74 4.05
02:34 2 19.1 78 869 0.02 0 1.88 2.25 51.33 0 0 2.21 4.63
02:33 2 19.2 78 2,147,483,647 0.02 0 1.86 1.85 51.82 0 0.71 2.21 5.79
02:32 2 19.2 78 2,147,483,647 0.02 0 1.87 2.2 56.8 0 0.71 2.21 4.63
02:31 2 19.2 78 2,147,483,647 0.02 0 1.86 2.03 49.19 0 0.71 1.25 3.48
02:30 2 19.2 78 2,147,483,647 0.02 0 1.85 2.06 53.4 0 0 1.72 4.06
02:29 2 19.2 78 2,147,483,647 0.02 0 1.87 2.09 54.46 0 0.71 2.67 5.22